Time;durP1;ratioP1;P1;durP2;ratioP2;P2;SDS_P1;SDS_P2;PMS_P1;PMS_P2;Temp;Humidity;BMP_temperature;BMP_pressure;BME280_temperature;BME280_humidity;BME280_pressure;Samples;Min_cycle;Max_cycle;Signal;HPM_P1;HPM_P2
2024/01/31 00:02:20;;;;;;;;;;;27.90;99.90;;;;;;5121341;27;19973;-70
2024/01/31 00:04:46;;;;;;;;;;;28.00;99.90;;;;;;5110933;27;20353;-69
2024/01/31 00:07:13;;;;;;;;;;;28.10;99.90;;;;;;5093573;28;19997;-70
2024/01/31 00:09:40;;;;;;;;;;;28.10;99.90;;;;;;5093958;28;19908;-69
2024/01/31 00:12:07;;;;;;;;;;;28.20;99.90;;;;;;5077846;28;20269;-69
2024/01/31 00:14:35;;;;;;;;;;;28.30;99.90;;;;;;5113533;27;19907;-68
2024/01/31 00:17:02;;;;;;;;;;;28.30;99.90;;;;;;5113147;28;19916;-68
2024/01/31 00:19:28;;;;;;;;;;;28.30;99.90;;;;;;5114684;28;19911;-69
2024/01/31 00:21:55;;;;;;;;;;;28.30;99.90;;;;;;5113676;28;20390;-67
2024/01/31 00:24:21;;;;;;;;;;;28.40;99.90;;;;;;5112869;28;19908;-70
2024/01/31 00:26:48;;;;;;;;;;;28.50;99.90;;;;;;5113170;28;19936;-69
2024/01/31 00:29:15;;;;;;;;;;;28.70;99.90;;;;;;5113817;28;20000;-67
2024/01/31 00:31:41;;;;;;;;;;;28.90;99.90;;;;;;5114005;28;20046;-67
2024/01/31 00:34:08;;;;;;;;;;;28.90;99.90;;;;;;5121364;27;19907;-67
2024/01/31 00:36:35;;;;;;;;;;;29.00;99.90;;;;;;5113529;28;19919;-67
2024/01/31 00:39:01;;;;;;;;;;;29.00;99.90;;;;;;5113375;28;20006;-70
2024/01/31 00:41:29;;;;;;;;;;;29.00;99.90;;;;;;5113228;28;20279;-69
2024/01/31 00:43:56;;;;;;;;;;;29.10;99.90;;;;;;5113430;27;19973;-68
2024/01/31 00:46:23;;;;;;;;;;;29.30;99.90;;;;;;5092579;28;19916;-69
2024/01/31 00:48:49;;;;;;;;;;;29.40;99.90;;;;;;5112033;27;19908;-67
2024/01/31 00:51:16;;;;;;;;;;;29.50;99.90;;;;;;5113346;28;19915;-68
2024/01/31 00:53:43;;;;;;;;;;;29.60;99.90;;;;;;5126797;27;19921;-68
2024/01/31 00:56:10;;;;;;;;;;;29.60;99.90;;;;;;5121868;27;19920;-68
2024/01/31 00:58:37;;;;;;;;;;;29.60;99.90;;;;;;5122441;27;20485;-69
2024/01/31 01:01:03;;;;;;;;;;;29.70;99.90;;;;;;5132164;27;19919;-67
2024/01/31 01:03:33;;;;;;;;;;;29.60;99.90;;;;;;5132630;27;20279;-66
2024/01/31 01:06:00;;;;;;;;;;;29.60;99.90;;;;;;5098861;27;20344;-69
2024/01/31 01:08:27;;;;;;;;;;;29.70;99.90;;;;;;5115961;27;19946;-70
2024/01/31 01:10:55;;;;;;;;;;;29.90;99.90;;;;;;5110799;28;19966;-67
2024/01/31 01:13:22;;;;;;;;;;;30.00;99.90;;;;;;5109268;28;19907;-69
2024/01/31 01:15:49;;;;;;;;;;;30.00;99.90;;;;;;5095869;28;19915;-67
2024/01/31 01:18:15;;;;;;;;;;;30.30;99.90;;;;;;5109259;28;19915;-69
2024/01/31 01:20:42;;;;;;;;;;;30.40;99.90;;;;;;5110058;28;19920;-68
2024/01/31 01:23:08;;;;;;;;;;;30.60;99.90;;;;;;5119892;27;19968;-68
2024/01/31 01:25:35;;;;;;;;;;;30.80;99.90;;;;;;5105640;28;20702;-67
2024/01/31 01:28:02;;;;;;;;;;;30.70;99.90;;;;;;5112194;28;19908;-68
2024/01/31 01:30:28;;;;;;;;;;;30.70;99.90;;;;;;5112080;28;19907;-67
2024/01/31 01:32:55;;;;;;;;;;;30.60;99.90;;;;;;5118718;27;19934;-67
2024/01/31 01:35:22;;;;;;;;;;;30.60;99.90;;;;;;5100187;28;20376;-67
2024/01/31 01:37:48;;;;;;;;;;;30.60;99.90;;;;;;5098359;28;19912;-67
2024/01/31 01:40:16;;;;;;;;;;;30.60;99.90;;;;;;5111996;28;19908;-71
2024/01/31 01:42:42;;;;;;;;;;;30.50;99.90;;;;;;5114327;27;19973;-68
2024/01/31 01:45:09;;;;;;;;;;;30.40;99.90;;;;;;5115664;28;19912;-70
2024/01/31 01:47:36;;;;;;;;;;;30.20;99.90;;;;;;5111176;28;19947;-71
2024/01/31 01:50:03;;;;;;;;;;;29.90;99.90;;;;;;5112196;28;19908;-68
2024/01/31 01:52:31;;;;;;;;;;;29.80;99.90;;;;;;5113027;28;19912;-69
2024/01/31 01:55:02;;;;;;;;;;;29.40;99.90;;;;;;5111470;28;19955;-67
2024/01/31 01:57:31;;;;;;;;;;;29.20;99.90;;;;;;5112228;28;19942;-68
2024/01/31 01:59:58;;;;;;;;;;;28.90;99.90;;;;;;5112119;28;19959;-68
2024/01/31 02:02:26;;;;;;;;;;;28.80;99.90;;;;;;5122131;28;19984;-70
2024/01/31 02:04:53;;;;;;;;;;;28.70;99.90;;;;;;5111033;28;20513;-69
2024/01/31 02:07:26;;;;;;;;;;;28.60;99.90;;;;;;5125780;28;19912;-69
2024/01/31 02:09:53;;;;;;;;;;;28.30;99.90;;;;;;5132384;28;20377;-71
2024/01/31 02:12:20;;;;;;;;;;;27.90;99.90;;;;;;5127103;28;19912;-67
2024/01/31 02:14:50;;;;;;;;;;;27.60;99.90;;;;;;5108811;28;20266;-69
2024/01/31 02:17:17;;;;;;;;;;;27.50;99.90;;;;;;5111678;28;20428;-72
2024/01/31 02:19:43;;;;;;;;;;;27.30;99.90;;;;;;5110869;28;20003;-70
2024/01/31 02:22:17;;;;;;;;;;;27.20;99.90;;;;;;5124647;28;20363;-67
2024/01/31 02:24:44;;;;;;;;;;;27.10;99.90;;;;;;5111225;28;19919;-68
2024/01/31 02:27:11;;;;;;;;;;;26.90;99.90;;;;;;5111371;28;20675;-68
2024/01/31 02:29:40;;;;;;;;;;;27.00;99.90;;;;;;5113037;28;19912;-68
2024/01/31 02:32:07;;;;;;;;;;;27.10;99.90;;;;;;5123793;27;20006;-68
2024/01/31 02:34:34;;;;;;;;;;;27.20;99.90;;;;;;5115024;28;19912;-68
2024/01/31 02:37:01;;;;;;;;;;;27.40;99.90;;;;;;5115048;28;20287;-71
2024/01/31 02:39:28;;;;;;;;;;;27.40;99.90;;;;;;5115005;28;20275;-67
2024/01/31 02:41:54;;;;;;;;;;;27.40;99.90;;;;;;5115235;28;19968;-69
2024/01/31 02:44:22;;;;;;;;;;;27.60;99.90;;;;;;5124688;27;19923;-71
2024/01/31 02:46:49;;;;;;;;;;;27.60;99.90;;;;;;5094661;28;19938;-67
2024/01/31 02:49:15;;;;;;;;;;;27.60;99.90;;;;;;5094903;28;19919;-69
2024/01/31 02:51:42;;;;;;;;;;;27.60;99.90;;;;;;5094817;28;19915;-70
2024/01/31 02:54:08;;;;;;;;;;;27.40;99.90;;;;;;5114257;27;20359;-69
2024/01/31 02:56:37;;;;;;;;;;;27.40;99.90;;;;;;5135444;27;19920;-70
2024/01/31 02:59:06;;;;;;;;;;;27.50;99.90;;;;;;5133132;27;19919;-69
2024/01/31 03:01:33;;;;;;;;;;;27.70;99.90;;;;;;5115062;27;19980;-71
2024/01/31 03:03:59;;;;;;;;;;;28.10;99.90;;;;;;5114585;28;20365;-69
2024/01/31 03:06:26;;;;;;;;;;;28.60;99.90;;;;;;5097822;27;20485;-69
2024/01/31 03:08:52;;;;;;;;;;;28.80;99.90;;;;;;5116860;27;19922;-69
2024/01/31 03:11:19;;;;;;;;;;;29.00;99.90;;;;;;5121940;27;20007;-70
2024/01/31 03:13:46;;;;;;;;;;;29.20;99.90;;;;;;5107514;28;19916;-67
2024/01/31 03:16:13;;;;;;;;;;;29.30;99.90;;;;;;5094612;28;19907;-71
2024/01/31 03:18:40;;;;;;;;;;;29.30;99.90;;;;;;5115150;27;19930;-67
2024/01/31 03:21:07;;;;;;;;;;;29.20;99.90;;;;;;5114955;28;20053;-69
2024/01/31 03:23:33;;;;;;;;;;;29.20;99.90;;;;;;5114306;28;20439;-67
2024/01/31 03:26:00;;;;;;;;;;;29.40;99.90;;;;;;5109775;28;19918;-69
2024/01/31 03:28:26;;;;;;;;;;;29.60;99.90;;;;;;5114323;28;20517;-68
2024/01/31 03:30:53;;;;;;;;;;;29.70;99.90;;;;;;5114732;27;19912;-70
2024/01/31 03:33:20;;;;;;;;;;;29.90;99.90;;;;;;5113940;28;19914;-70
2024/01/31 03:35:46;;;;;;;;;;;30.00;99.90;;;;;;5108058;28;20006;-69
2024/01/31 03:38:13;;;;;;;;;;;30.00;99.90;;;;;;5130067;27;20318;-68
2024/01/31 03:40:40;;;;;;;;;;;30.40;99.90;;;;;;5134691;27;19958;-68
2024/01/31 03:43:06;;;;;;;;;;;30.60;99.90;;;;;;5120369;27;19918;-68
2024/01/31 03:45:33;;;;;;;;;;;31.40;99.90;;;;;;5114203;28;19965;-67
2024/01/31 03:48:00;;;;;;;;;;;32.40;99.90;;;;;;5114326;27;19962;-68
2024/01/31 03:50:27;;;;;;;;;;;33.30;98.90;;;;;;5113015;28;19999;-68
2024/01/31 03:52:54;;;;;;;;;;;33.70;98.30;;;;;;5113273;28;19974;-70
2024/01/31 03:55:20;;;;;;;;;;;34.40;97.20;;;;;;5113765;28;19924;-67
2024/01/31 03:57:47;;;;;;;;;;;35.10;95.60;;;;;;5114006;28;19911;-67
2024/01/31 04:00:14;;;;;;;;;;;35.50;94.60;;;;;;5113860;28;19999;-67
2024/01/31 04:02:40;;;;;;;;;;;36.10;94.30;;;;;;5121243;27;19965;-69
2024/01/31 04:05:10;;;;;;;;;;;36.90;93.20;;;;;;5131421;27;19911;-69
2024/01/31 04:07:38;;;;;;;;;;;37.30;92.00;;;;;;5114374;27;19973;-69
2024/01/31 04:10:04;;;;;;;;;;;36.50;91.80;;;;;;5126618;27;19919;-69
2024/01/31 04:12:31;;;;;;;;;;;36.00;92.90;;;;;;5113114;27;19922;-69
2024/01/31 04:14:58;;;;;;;;;;;36.30;92.40;;;;;;5112998;28;19978;-68
2024/01/31 04:17:24;;;;;;;;;;;36.80;91.80;;;;;;5113199;28;20007;-67
2024/01/31 04:19:51;;;;;;;;;;;37.60;91.60;;;;;;5113057;28;19920;-67
2024/01/31 04:22:17;;;;;;;;;;;38.60;89.50;;;;;;5113002;27;20391;-67
2024/01/31 04:24:45;;;;;;;;;;;38.80;89.80;;;;;;5113336;28;19908;-70
2024/01/31 04:27:11;;;;;;;;;;;38.70;87.90;;;;;;5114983;27;19960;-69
2024/01/31 04:29:39;;;;;;;;;;;38.80;89.30;;;;;;5113115;27;19915;-68
2024/01/31 04:32:08;;;;;;;;;;;39.00;87.30;;;;;;5113537;28;19915;-69
2024/01/31 04:34:38;;;;;;;;;;;39.30;86.70;;;;;;5128289;27;19912;-68
2024/01/31 04:37:05;;;;;;;;;;;39.20;85.70;;;;;;5117695;27;20348;-68
2024/01/31 04:39:32;;;;;;;;;;;38.70;87.00;;;;;;5094834;28;19915;-66
2024/01/31 04:41:59;;;;;;;;;;;38.50;86.30;;;;;;5129339;27;19944;-69
2024/01/31 04:44:26;;;;;;;;;;;38.10;86.70;;;;;;5112689;28;20279;-68
2024/01/31 04:46:52;;;;;;;;;;;38.10;86.70;;;;;;5113165;28;19919;-68
2024/01/31 04:49:19;;;;;;;;;;;38.10;86.00;;;;;;5115304;27;20351;-72
2024/01/31 04:51:46;;;;;;;;;;;38.30;86.60;;;;;;5112315;28;19978;-69
2024/01/31 04:54:12;;;;;;;;;;;37.90;85.90;;;;;;5091701;28;19999;-69
2024/01/31 04:56:39;;;;;;;;;;;36.60;88.70;;;;;;5112788;28;20379;-70
2024/01/31 04:59:06;;;;;;;;;;;35.30;90.70;;;;;;5114025;27;20291;-69
2024/01/31 05:01:32;;;;;;;;;;;34.50;91.60;;;;;;5118778;27;19916;-70
2024/01/31 05:03:59;;;;;;;;;;;34.10;92.80;;;;;;5116158;27;19919;-66
2024/01/31 05:06:26;;;;;;;;;;;34.50;92.10;;;;;;5112069;28;19911;-68
2024/01/31 05:08:52;;;;;;;;;;;35.40;91.10;;;;;;5126013;27;20343;-68
2024/01/31 05:11:19;;;;;;;;;;;36.00;91.10;;;;;;5133461;27;19938;-67
2024/01/31 05:13:46;;;;;;;;;;;36.60;90.30;;;;;;5113849;27;19915;-68
2024/01/31 05:16:12;;;;;;;;;;;36.90;89.80;;;;;;5112155;28;19992;-68
2024/01/31 05:18:40;;;;;;;;;;;37.30;89.60;;;;;;5112524;28;19916;-70
2024/01/31 05:21:10;;;;;;;;;;;36.80;89.30;;;;;;5117630;27;19927;-69
2024/01/31 05:23:40;;;;;;;;;;;35.80;90.60;;;;;;5116806;27;19912;-70
2024/01/31 05:26:08;;;;;;;;;;;34.80;91.60;;;;;;5121319;27;20426;-71
2024/01/31 05:28:35;;;;;;;;;;;34.00;92.80;;;;;;5112750;27;19911;-68
2024/01/31 05:31:03;;;;;;;;;;;33.70;93.00;;;;;;5109533;27;20067;-71
2024/01/31 05:33:30;;;;;;;;;;;34.30;93.00;;;;;;5111289;28;20391;-69
2024/01/31 05:35:58;;;;;;;;;;;35.00;92.20;;;;;;5095684;28;20550;-69
2024/01/31 05:38:25;;;;;;;;;;;35.30;91.50;;;;;;5100076;28;19919;-70
2024/01/31 05:40:51;;;;;;;;;;;35.00;91.40;;;;;;5112135;27;19935;-70
2024/01/31 05:43:18;;;;;;;;;;;34.10;92.40;;;;;;5111858;28;20006;-69
2024/01/31 05:45:45;;;;;;;;;;;33.20;93.70;;;;;;5097391;28;20016;-70
2024/01/31 05:48:14;;;;;;;;;;;32.30;94.80;;;;;;5115058;27;20492;-69
2024/01/31 05:50:40;;;;;;;;;;;31.70;96.00;;;;;;5112602;28;19911;-68
2024/01/31 05:53:07;;;;;;;;;;;31.80;96.20;;;;;;5125177;27;19911;-68
2024/01/31 05:55:34;;;;;;;;;;;32.10;96.00;;;;;;5119633;27;20010;-68
2024/01/31 05:58:00;;;;;;;;;;;33.00;94.90;;;;;;5121920;27;19916;-68
2024/01/31 06:00:27;;;;;;;;;;;33.40;94.30;;;;;;5132772;28;19915;-67
2024/01/31 06:02:53;;;;;;;;;;;33.80;93.90;;;;;;5131008;27;20259;-69
2024/01/31 06:05:20;;;;;;;;;;;33.90;93.50;;;;;;5110306;27;19912;-70
2024/01/31 06:07:47;;;;;;;;;;;34.50;93.20;;;;;;5098787;28;20379;-69
2024/01/31 06:10:13;;;;;;;;;;;34.80;92.40;;;;;;5136848;27;19912;-71
2024/01/31 06:12:40;;;;;;;;;;;34.50;92.70;;;;;;5118586;28;19912;-68
2024/01/31 06:15:07;;;;;;;;;;;34.00;93.00;;;;;;5109933;28;19989;-67
2024/01/31 06:17:33;;;;;;;;;;;33.80;93.50;;;;;;5102941;28;19933;-69
2024/01/31 06:20:00;;;;;;;;;;;34.20;92.90;;;;;;5119906;27;19952;-67
2024/01/31 06:22:27;;;;;;;;;;;34.80;92.10;;;;;;5117848;28;19920;-67
2024/01/31 06:24:53;;;;;;;;;;;34.70;92.00;;;;;;5111252;28;19912;-69
2024/01/31 06:27:20;;;;;;;;;;;34.00;92.40;;;;;;5098694;28;19908;-69
2024/01/31 06:29:46;;;;;;;;;;;33.20;93.00;;;;;;5099873;27;19908;-69
2024/01/31 06:32:20;;;;;;;;;;;32.20;93.90;;;;;;5139137;27;19952;-68
2024/01/31 06:34:48;;;;;;;;;;;31.30;95.10;;;;;;5132903;27;19951;-68
2024/01/31 06:37:15;;;;;;;;;;;30.70;96.00;;;;;;5124649;27;19926;-67
2024/01/31 06:39:42;;;;;;;;;;;30.30;96.80;;;;;;5118899;28;20282;-67
2024/01/31 06:42:09;;;;;;;;;;;30.00;97.30;;;;;;5118762;27;19923;-68
2024/01/31 06:44:35;;;;;;;;;;;30.00;97.70;;;;;;5114048;28;19908;-69
2024/01/31 06:47:03;;;;;;;;;;;30.00;97.70;;;;;;5106591;27;19911;-69
2024/01/31 06:49:30;;;;;;;;;;;29.80;97.80;;;;;;5124101;27;19908;-68
2024/01/31 06:51:56;;;;;;;;;;;29.50;98.10;;;;;;5100627;28;19969;-69
2024/01/31 06:54:23;;;;;;;;;;;29.40;98.40;;;;;;5117857;27;19943;-69
2024/01/31 06:56:50;;;;;;;;;;;29.20;99.10;;;;;;5124935;27;19924;-66
2024/01/31 06:59:16;;;;;;;;;;;28.90;99.40;;;;;;5125635;27;20454;-69
2024/01/31 07:01:43;;;;;;;;;;;28.70;99.90;;;;;;5123114;27;19927;-69
2024/01/31 07:04:09;;;;;;;;;;;28.50;99.90;;;;;;5131907;27;19934;-69
2024/01/31 07:06:36;;;;;;;;;;;28.50;99.90;;;;;;5118854;27;19912;-69
2024/01/31 07:09:03;;;;;;;;;;;28.20;99.90;;;;;;5118245;28;19915;-69
2024/01/31 07:11:30;;;;;;;;;;;27.90;99.90;;;;;;5118048;28;20383;-69
2024/01/31 07:13:56;;;;;;;;;;;27.60;99.90;;;;;;5117688;28;19987;-69
2024/01/31 07:16:23;;;;;;;;;;;27.40;99.90;;;;;;5130081;27;19998;-69
2024/01/31 07:18:50;;;;;;;;;;;27.20;99.90;;;;;;5118869;27;19957;-68
2024/01/31 07:21:23;;;;;;;;;;;27.10;99.90;;;;;;5119715;27;20279;-68
2024/01/31 07:23:50;;;;;;;;;;;27.00;99.90;;;;;;5114549;28;19926;-68
2024/01/31 07:26:23;;;;;;;;;;;26.80;99.90;;;;;;5115090;27;19920;-67
2024/01/31 07:28:51;;;;;;;;;;;26.60;99.90;;;;;;5108981;28;19919;-68
2024/01/31 07:31:17;;;;;;;;;;;26.60;99.90;;;;;;5115239;27;19911;-68
2024/01/31 07:33:45;;;;;;;;;;;26.50;99.90;;;;;;5111748;28;19961;-69
2024/01/31 07:36:11;;;;;;;;;;;26.30;99.90;;;;;;5112603;28;19963;-68
2024/01/31 07:38:47;;;;;;;;;;;26.20;99.90;;;;;;5113835;28;20699;-67
2024/01/31 07:41:14;;;;;;;;;;;26.10;99.90;;;;;;5113318;28;19920;-69
2024/01/31 07:43:41;;;;;;;;;;;26.10;99.90;;;;;;5112345;27;19996;-69
2024/01/31 07:46:08;;;;;;;;;;;26.00;99.90;;;;;;5110457;28;19908;-68
2024/01/31 07:48:34;;;;;;;;;;;25.80;99.90;;;;;;5115263;28;19908;-68
2024/01/31 07:51:05;;;;;;;;;;;25.80;99.90;;;;;;5115405;28;19916;-68
2024/01/31 07:53:36;;;;;;;;;;;25.70;99.90;;;;;;5115215;28;20372;-69
2024/01/31 07:56:03;;;;;;;;;;;25.60;99.90;;;;;;5114894;28;19924;-68
2024/01/31 07:58:30;;;;;;;;;;;25.60;99.90;;;;;;5114842;28;19907;-71
2024/01/31 08:00:57;;;;;;;;;;;25.60;99.90;;;;;;5114781;28;19919;-70
2024/01/31 08:03:24;;;;;;;;;;;25.40;99.90;;;;;;5121001;27;19964;-68
2024/01/31 08:05:50;;;;;;;;;;;25.40;99.90;;;;;;5134700;27;19911;-68
2024/01/31 08:08:17;;;;;;;;;;;25.40;99.90;;;;;;5122598;27;19912;-67
2024/01/31 08:10:44;;;;;;;;;;;25.30;99.90;;;;;;5114249;28;19912;-69
2024/01/31 08:13:11;;;;;;;;;;;25.30;99.90;;;;;;5115039;28;20295;-70
2024/01/31 08:15:38;;;;;;;;;;;25.20;99.90;;;;;;5114215;27;19912;-68
2024/01/31 08:18:05;;;;;;;;;;;25.20;99.90;;;;;;5114574;28;19911;-69
2024/01/31 08:20:31;;;;;;;;;;;25.10;99.90;;;;;;5114606;28;19957;-69
2024/01/31 08:22:58;;;;;;;;;;;25.10;99.90;;;;;;5114822;28;20416;-69
2024/01/31 08:25:25;;;;;;;;;;;25.00;99.90;;;;;;5114754;28;19914;-68
2024/01/31 08:27:53;;;;;;;;;;;24.90;99.90;;;;;;5112126;28;19931;-68
2024/01/31 08:30:21;;;;;;;;;;;25.00;99.90;;;;;;5113748;28;20307;-68
2024/01/31 08:32:47;;;;;;;;;;;24.90;99.90;;;;;;5113722;27;19912;-69
2024/01/31 08:35:14;;;;;;;;;;;24.80;99.90;;;;;;5115830;27;20391;-70
2024/01/31 08:37:40;;;;;;;;;;;24.70;99.90;;;;;;5111101;28;19917;-71
2024/01/31 08:40:10;;;;;;;;;;;24.70;99.90;;;;;;5113422;28;19912;-70
2024/01/31 08:42:38;;;;;;;;;;;24.60;99.90;;;;;;5113423;28;19926;-71
2024/01/31 08:45:09;;;;;;;;;;;24.60;99.90;;;;;;5113037;28;20310;-68
2024/01/31 08:47:36;;;;;;;;;;;24.60;99.90;;;;;;5113417;28;19922;-69
2024/01/31 08:50:03;;;;;;;;;;;24.50;99.90;;;;;;5113369;28;19907;-71
2024/01/31 08:52:29;;;;;;;;;;;24.50;99.90;;;;;;5113506;28;19930;-69
2024/01/31 08:54:56;;;;;;;;;;;24.40;99.90;;;;;;5118788;27;20316;-69
2024/01/31 08:57:23;;;;;;;;;;;24.30;99.90;;;;;;5107400;27;19951;-69
2024/01/31 08:59:50;;;;;;;;;;;24.30;99.90;;;;;;5110836;28;19908;-68
2024/01/31 09:02:16;;;;;;;;;;;24.20;99.90;;;;;;5113818;28;19916;-70
2024/01/31 09:04:43;;;;;;;;;;;24.20;99.90;;;;;;5117039;27;19945;-68
2024/01/31 09:07:10;;;;;;;;;;;24.10;99.90;;;;;;5107786;27;19912;-70
2024/01/31 09:58:39;;;;;;;;;;;23.80;99.90;;;;;;5072101;28;19920;-73
2024/01/31 10:01:06;;;;;;;;;;;23.80;99.90;;;;;;5072466;28;20439;-71
2024/01/31 10:03:33;;;;;;;;;;;23.80;99.90;;;;;;5062419;28;20284;-71
2024/01/31 10:05:59;;;;;;;;;;;23.80;99.90;;;;;;5053480;28;20394;-67
2024/01/31 10:08:29;;;;;;;;;;;23.80;99.90;;;;;;5065953;28;19953;-65
2024/01/31 10:10:56;;;;;;;;;;;23.80;99.90;;;;;;5052339;28;19921;-69
2024/01/31 10:13:23;;;;;;;;;;;23.80;99.90;;;;;;5033601;28;19908;-68
2024/01/31 10:15:50;;;;;;;;;;;23.90;99.90;;;;;;5034639;28;19920;-67
2024/01/31 10:18:16;;;;;;;;;;;23.90;99.90;;;;;;5052615;28;19999;-69
2024/01/31 10:20:49;;;;;;;;;;;23.80;99.90;;;;;;5017790;28;19955;-70
2024/01/31 10:23:16;;;;;;;;;;;23.80;99.90;;;;;;5034481;28;19920;-68
2024/01/31 10:25:43;;;;;;;;;;;23.90;99.90;;;;;;5052303;28;19912;-69
2024/01/31 10:28:10;;;;;;;;;;;23.90;99.90;;;;;;5059862;28;19908;-66
2024/01/31 10:30:43;;;;;;;;;;;23.90;99.90;;;;;;5072325;28;19916;-70
2024/01/31 10:33:11;;;;;;;;;;;24.00;99.90;;;;;;5068599;28;19939;-68
2024/01/31 10:35:38;;;;;;;;;;;23.90;99.90;;;;;;5051828;28;19917;-70
2024/01/31 10:38:06;;;;;;;;;;;23.90;99.90;;;;;;5051786;28;20000;-69
2024/01/31 10:40:34;;;;;;;;;;;24.00;99.90;;;;;;5052398;28;20012;-69
2024/01/31 10:43:02;;;;;;;;;;;24.00;99.90;;;;;;5034349;28;19978;-68
2024/01/31 10:45:31;;;;;;;;;;;24.00;99.90;;;;;;5031136;28;19913;-70
2024/01/31 10:47:58;;;;;;;;;;;24.00;99.90;;;;;;5069124;28;19915;-70
2024/01/31 10:50:24;;;;;;;;;;;24.00;99.90;;;;;;5071278;28;19944;-69
2024/01/31 10:52:52;;;;;;;;;;;23.90;99.90;;;;;;5055633;28;19949;-72
2024/01/31 10:55:20;;;;;;;;;;;23.90;99.90;;;;;;5053108;28;19935;-72
2024/01/31 10:57:48;;;;;;;;;;;24.00;99.90;;;;;;5055909;28;20287;-68
2024/01/31 11:00:28;;;;;;;;;;;24.00;99.90;;;;;;5074580;28;19916;-70
2024/01/31 11:02:56;;;;;;;;;;;24.00;99.90;;;;;;5074910;28;19920;-69
2024/01/31 11:05:25;;;;;;;;;;;24.00;99.90;;;;;;5074824;28;20272;-72
2024/01/31 11:07:51;;;;;;;;;;;23.90;99.90;;;;;;5057626;28;20377;-68
2024/01/31 11:10:22;;;;;;;;;;;23.90;99.90;;;;;;5075682;28;20383;-71
2024/01/31 11:13:01;;;;;;;;;;;24.00;99.90;;;;;;5075728;28;19908;-69
2024/01/31 11:15:32;;;;;;;;;;;23.90;99.90;;;;;;5073582;28;20335;-72
2024/01/31 11:18:14;;;;;;;;;;;24.00;99.90;;;;;;5074987;28;19912;-72
2024/01/31 11:20:42;;;;;;;;;;;23.90;99.90;;;;;;5075067;28;19915;-71
2024/01/31 11:23:13;;;;;;;;;;;24.00;99.90;;;;;;5075062;28;19913;-69
2024/01/31 11:25:40;;;;;;;;;;;24.00;99.90;;;;;;5074685;28;19959;-69
2024/01/31 11:28:08;;;;;;;;;;;24.00;99.90;;;;;;5075029;28;20403;-69
2024/01/31 11:30:35;;;;;;;;;;;24.00;99.90;;;;;;5074330;28;20348;-71
2024/01/31 11:33:05;;;;;;;;;;;24.00;99.90;;;;;;5074794;28;19912;-68
2024/01/31 11:35:35;;;;;;;;;;;24.00;99.90;;;;;;5074597;28;19966;-69
2024/01/31 11:38:02;;;;;;;;;;;24.00;99.90;;;;;;5074906;28;19912;-69
2024/01/31 11:40:29;;;;;;;;;;;24.00;99.90;;;;;;5074998;28;19909;-70
2024/01/31 11:42:56;;;;;;;;;;;24.00;99.90;;;;;;5056958;28;19946;-68
2024/01/31 11:45:26;;;;;;;;;;;24.10;99.90;;;;;;5074622;28;19959;-70
2024/01/31 11:47:53;;;;;;;;;;;24.10;99.90;;;;;;5074897;28;19999;-70
2024/01/31 11:50:21;;;;;;;;;;;24.10;99.90;;;;;;5074928;28;20005;-68
2024/01/31 11:52:47;;;;;;;;;;;24.20;99.90;;;;;;5074546;28;19909;-70
2024/01/31 11:55:19;;;;;;;;;;;24.10;99.90;;;;;;5074575;28;20375;-70
2024/01/31 11:57:46;;;;;;;;;;;24.10;99.90;;;;;;5074205;28;19920;-67
2024/01/31 12:00:13;;;;;;;;;;;24.10;99.90;;;;;;5074725;28;20007;-69
2024/01/31 12:02:39;;;;;;;;;;;24.10;99.90;;;;;;5074238;28;19916;-68
2024/01/31 12:05:06;;;;;;;;;;;24.10;99.90;;;;;;5069748;28;19916;-70
2024/01/31 12:07:33;;;;;;;;;;;24.10;99.90;;;;;;5054650;28;20007;-71
2024/01/31 12:10:00;;;;;;;;;;;24.10;99.90;;;;;;5054235;28;19909;-69
2024/01/31 12:12:27;;;;;;;;;;;24.20;99.90;;;;;;5054164;28;19979;-69
2024/01/31 12:14:53;;;;;;;;;;;24.20;99.90;;;;;;5054193;28;19970;-69
2024/01/31 12:17:21;;;;;;;;;;;24.20;99.90;;;;;;5054093;28;20372;-71
2024/01/31 12:19:48;;;;;;;;;;;24.20;99.90;;;;;;5054224;28;19916;-71
2024/01/31 12:22:17;;;;;;;;;;;24.20;99.90;;;;;;5054018;28;19967;-71
2024/01/31 12:24:44;;;;;;;;;;;24.20;99.90;;;;;;5053961;28;19948;-71
2024/01/31 12:27:10;;;;;;;;;;;24.20;99.90;;;;;;5054332;28;19944;-71
2024/01/31 12:29:37;;;;;;;;;;;24.20;99.90;;;;;;5054346;28;19913;-68
2024/01/31 12:32:04;;;;;;;;;;;24.10;99.90;;;;;;5054034;28;19947;-68
2024/01/31 12:34:31;;;;;;;;;;;24.00;99.90;;;;;;5053880;28;19961;-67
2024/01/31 12:36:57;;;;;;;;;;;23.90;99.90;;;;;;5054077;28;19939;-68
2024/01/31 12:39:24;;;;;;;;;;;23.90;99.90;;;;;;5053960;28;19913;-67
2024/01/31 12:41:52;;;;;;;;;;;23.90;99.90;;;;;;5053897;28;19913;-68
2024/01/31 12:44:18;;;;;;;;;;;23.80;99.90;;;;;;5053726;28;19924;-72
2024/01/31 12:46:45;;;;;;;;;;;23.90;99.90;;;;;;5053647;28;20272;-71
2024/01/31 12:49:12;;;;;;;;;;;23.80;99.90;;;;;;5053680;28;19913;-72
2024/01/31 12:51:39;;;;;;;;;;;23.90;99.90;;;;;;5053866;28;19915;-70
2024/01/31 12:54:06;;;;;;;;;;;23.80;99.90;;;;;;5053646;28;19913;-71
2024/01/31 12:56:32;;;;;;;;;;;23.80;99.90;;;;;;5053690;28;20323;-72
2024/01/31 12:58:59;;;;;;;;;;;23.80;99.90;;;;;;5053297;28;19920;-71
2024/01/31 13:01:26;;;;;;;;;;;23.80;99.90;;;;;;5053792;28;19963;-68
2024/01/31 13:03:52;;;;;;;;;;;23.80;99.90;;;;;;5053341;28;19916;-69
2024/01/31 13:06:19;;;;;;;;;;;23.80;99.90;;;;;;5053381;28;19913;-72
2024/01/31 13:08:45;;;;;;;;;;;23.80;99.90;;;;;;5053285;28;20361;-69
2024/01/31 13:11:12;;;;;;;;;;;23.70;99.90;;;;;;5053148;28;19913;-71
2024/01/31 13:13:40;;;;;;;;;;;23.70;99.90;;;;;;5052514;28;19912;-69
2024/01/31 13:16:07;;;;;;;;;;;23.70;99.90;;;;;;5052867;28;20378;-69
2024/01/31 13:18:34;;;;;;;;;;;23.70;99.90;;;;;;5053190;28;19908;-68
2024/01/31 13:21:01;;;;;;;;;;;23.70;99.90;;;;;;5054038;28;20444;-69
2024/01/31 13:23:27;;;;;;;;;;;23.70;99.90;;;;;;5052975;28;19916;-70
2024/01/31 13:25:54;;;;;;;;;;;23.60;99.90;;;;;;5052979;28;20279;-69
2024/01/31 13:28:20;;;;;;;;;;;23.60;99.90;;;;;;5053170;28;19913;-69
2024/01/31 13:30:47;;;;;;;;;;;23.60;99.90;;;;;;5053101;28;19913;-73
2024/01/31 13:33:13;;;;;;;;;;;23.60;99.90;;;;;;5053248;28;19909;-71
2024/01/31 13:35:40;;;;;;;;;;;23.50;99.90;;;;;;5052847;28;19909;-71
2024/01/31 13:38:07;;;;;;;;;;;23.50;99.90;;;;;;5052797;28;20323;-69
2024/01/31 13:40:33;;;;;;;;;;;23.50;99.90;;;;;;5053005;28;19909;-67
2024/01/31 13:43:00;;;;;;;;;;;23.40;99.90;;;;;;5052755;28;19951;-70
2024/01/31 13:45:27;;;;;;;;;;;23.30;99.90;;;;;;5052597;28;19913;-72
2024/01/31 13:47:53;;;;;;;;;;;23.30;99.90;;;;;;5053028;28;20357;-72
2024/01/31 13:50:20;;;;;;;;;;;23.30;99.90;;;;;;5052913;28;20427;-71
2024/01/31 13:52:47;;;;;;;;;;;23.40;99.90;;;;;;5052545;28;20003;-71
2024/01/31 13:55:14;;;;;;;;;;;23.30;99.90;;;;;;5052109;28;19920;-68
2024/01/31 13:57:40;;;;;;;;;;;23.20;99.90;;;;;;5052634;28;20295;-71
2024/01/31 14:00:07;;;;;;;;;;;23.30;99.90;;;;;;5052936;28;19955;-71
2024/01/31 14:02:34;;;;;;;;;;;23.20;99.90;;;;;;5067412;28;20283;-71
2024/01/31 14:05:00;;;;;;;;;;;23.20;99.90;;;;;;5072856;28;19908;-71
2024/01/31 14:07:27;;;;;;;;;;;23.20;99.90;;;;;;5072218;28;20310;-68
2024/01/31 14:09:53;;;;;;;;;;;23.20;99.90;;;;;;5072542;28;19912;-70
2024/01/31 14:12:21;;;;;;;;;;;23.20;99.90;;;;;;5072273;28;20375;-70
2024/01/31 14:14:48;;;;;;;;;;;23.20;99.90;;;;;;5062924;28;19955;-71
2024/01/31 14:17:15;;;;;;;;;;;23.20;99.90;;;;;;5057025;28;20331;-72
2024/01/31 14:19:41;;;;;;;;;;;23.20;99.90;;;;;;5060471;28;19967;-72
2024/01/31 14:22:08;;;;;;;;;;;23.20;99.90;;;;;;5052373;28;20435;-71
2024/01/31 14:24:35;;;;;;;;;;;23.20;99.90;;;;;;5053885;28;19909;-69
2024/01/31 14:27:01;;;;;;;;;;;23.20;99.90;;;;;;5056583;28;19948;-71
2024/01/31 14:29:28;;;;;;;;;;;23.20;99.90;;;;;;5061603;28;19918;-71
2024/01/31 14:31:54;;;;;;;;;;;23.20;99.90;;;;;;5076481;28;19995;-70
2024/01/31 14:34:22;;;;;;;;;;;23.20;99.90;;;;;;5075634;28;19917;-72
2024/01/31 14:36:48;;;;;;;;;;;23.20;99.90;;;;;;5076434;28;19956;-73
2024/01/31 14:39:15;;;;;;;;;;;23.10;99.90;;;;;;5076098;28;20443;-72
2024/01/31 14:41:47;;;;;;;;;;;23.10;99.90;;;;;;5067606;28;19917;-71
2024/01/31 14:44:14;;;;;;;;;;;23.10;99.90;;;;;;5056170;28;19967;-72
2024/01/31 14:46:40;;;;;;;;;;;23.20;99.90;;;;;;5056058;28;19908;-72
2024/01/31 14:49:10;;;;;;;;;;;23.10;99.90;;;;;;5038329;28;20348;-69
2024/01/31 14:51:37;;;;;;;;;;;23.20;99.90;;;;;;5062414;28;19920;-67
2024/01/31 14:54:06;;;;;;;;;;;23.20;99.90;;;;;;5075475;28;19920;-70
2024/01/31 14:56:35;;;;;;;;;;;23.10;99.90;;;;;;5075758;28;19969;-69
2024/01/31 14:59:02;;;;;;;;;;;23.10;99.90;;;;;;5075983;28;19920;-68
2024/01/31 15:01:28;;;;;;;;;;;23.00;99.90;;;;;;5069995;28;19917;-71
2024/01/31 15:03:56;;;;;;;;;;;23.00;99.90;;;;;;5055710;28;19942;-71
2024/01/31 15:06:23;;;;;;;;;;;23.00;99.90;;;;;;5055758;28;19931;-69